createdAt,value
2018-12-24T00:01:18.516Z,91.72
2018-12-24T00:07:23.155Z,91.73
2018-12-24T00:13:27.892Z,91.53
2018-12-24T00:19:32.538Z,92.04
2018-12-24T00:25:37.210Z,92.02
2018-12-24T00:31:41.916Z,92.24
2018-12-24T00:37:46.607Z,93.14
2018-12-24T00:43:51.283Z,91.90
2018-12-24T00:49:55.977Z,92.83
2018-12-24T00:56:00.601Z,92.99
2018-12-24T01:02:05.259Z,92.69
2018-12-24T01:08:09.991Z,92.23
2018-12-24T01:14:14.654Z,93.19
2018-12-24T01:20:19.311Z,93.18
2018-12-24T01:26:24.005Z,92.83
2018-12-24T01:32:28.659Z,91.93
2018-12-24T01:38:33.322Z,92.27
2018-12-24T01:44:38.009Z,92.72
2018-12-24T01:50:42.710Z,92.47
2018-12-24T01:56:47.395Z,92.65
2018-12-24T02:02:52.042Z,93.44
2018-12-24T02:08:56.805Z,94.14
2018-12-24T02:15:01.457Z,94.52
2018-12-24T02:21:06.253Z,95.28
2018-12-24T02:27:10.905Z,96.26
2018-12-24T02:33:15.641Z,96.84
2018-12-24T02:39:20.366Z,97.22
2018-12-24T02:45:25.003Z,98.02
2018-12-24T02:51:29.674Z,98.42
2018-12-24T02:57:34.325Z,98.75
2018-12-24T03:03:39.014Z,98.40
2018-12-24T03:09:43.763Z,97.49
2018-12-24T03:15:48.433Z,97.92
2018-12-24T03:21:53.099Z,98.58
2018-12-24T03:27:57.818Z,98.25
2018-12-24T03:34:02.491Z,97.60
2018-12-24T03:40:07.155Z,97.36
2018-12-24T03:46:11.823Z,97.44
2018-12-24T03:52:16.535Z,96.05
2018-12-24T03:58:21.212Z,96.18
2018-12-24T04:04:25.913Z,95.42
2018-12-24T04:10:30.594Z,95.35
2018-12-24T04:16:35.339Z,94.24
2018-12-24T04:22:40.000Z,92.60
2018-12-24T04:28:44.650Z,92.58
2018-12-24T04:34:49.303Z,91.86
2018-12-24T04:40:53.976Z,92.52
2018-12-24T04:46:58.694Z,93.00
2018-12-24T04:53:03.351Z,92.77
2018-12-24T04:59:08.017Z,93.32
2018-12-24T05:05:12.685Z,91.32
2018-12-24T05:11:17.341Z,89.99
2018-12-24T05:17:22.070Z,89.10
2018-12-24T05:23:26.741Z,88.94
2018-12-24T05:29:31.410Z,89.55
2018-12-24T05:35:36.074Z,89.59
2018-12-24T05:41:40.726Z,89.75
2018-12-24T05:47:45.403Z,89.96
2018-12-24T05:53:50.031Z,89.70
2018-12-24T05:59:54.696Z,89.60
2018-12-24T06:05:59.363Z,89.60
2018-12-24T06:12:04.018Z,89.65
2018-12-24T06:18:08.682Z,88.97
2018-12-24T06:24:13.342Z,89.30
2018-12-24T06:30:18.013Z,90.45
2018-12-24T06:36:22.663Z,90.64
2018-12-24T06:42:27.320Z,90.11
2018-12-24T06:48:32.004Z,90.54
2018-12-24T06:54:36.637Z,90.37
2018-12-24T07:00:41.293Z,90.41
2018-12-24T07:06:45.993Z,91.23
2018-12-24T07:12:50.633Z,91.95
2018-12-24T07:18:55.314Z,92.10
2018-12-24T07:25:00.041Z,92.18
2018-12-24T07:31:04.686Z,92.39
2018-12-24T07:37:09.550Z,90.92
2018-12-24T07:43:14.296Z,90.69
2018-12-24T07:49:19.979Z,90.91
2018-12-24T07:55:24.715Z,90.91
2018-12-24T08:01:29.386Z,91.46
2018-12-24T08:07:34.060Z,90.90
2018-12-24T08:13:38.741Z,90.24
2018-12-24T08:19:43.392Z,90.48
2018-12-24T08:25:49.112Z,89.79
2018-12-24T08:31:53.851Z,88.48
2018-12-24T08:37:58.505Z,88.31
2018-12-24T08:44:03.167Z,88.82
2018-12-24T08:50:07.908Z,88.61
2018-12-24T08:56:12.561Z,88.09
2018-12-24T09:02:17.220Z,87.75
2018-12-24T09:08:23.055Z,87.71
2018-12-24T09:14:28.056Z,85.88
2018-12-24T09:20:32.704Z,86.17
2018-12-24T09:26:37.348Z,84.98
2018-12-24T09:32:42.033Z,83.92
2018-12-24T09:38:46.686Z,83.92
2018-12-24T09:44:58.730Z,84.71
2018-12-24T09:50:57.837Z,83.44
2018-12-24T09:57:02.502Z,83.01
2018-12-24T10:03:08.096Z,82.11
2018-12-24T10:09:13.056Z,80.92
2018-12-24T10:15:17.968Z,80.93
2018-12-24T10:21:22.706Z,80.70
2018-12-24T10:27:27.374Z,81.39
2018-12-24T10:33:32.153Z,80.96
2018-12-24T10:39:36.800Z,81.91
2018-12-24T10:45:41.457Z,82.23
2018-12-24T10:51:46.138Z,82.02
2018-12-24T10:57:50.797Z,82.26
2018-12-24T11:03:55.441Z,80.66
2018-12-24T11:10:00.217Z,78.41
2018-12-24T11:16:04.917Z,79.51
2018-12-24T11:22:09.592Z,79.30
2018-12-24T11:28:14.310Z,79.55
2018-12-24T11:34:19.043Z,80.19
2018-12-24T11:40:23.695Z,80.53
2018-12-24T11:46:28.343Z,80.80
2018-12-24T11:52:33.008Z,80.02
2018-12-24T11:58:37.675Z,80.32
2018-12-24T12:04:42.372Z,81.41
2018-12-24T12:10:47.015Z,82.60
2018-12-24T12:16:51.708Z,81.10
2018-12-24T12:22:56.384Z,80.66
2018-12-24T12:29:01.047Z,81.09
2018-12-24T12:35:06.246Z,80.64
2018-12-24T12:41:10.926Z,79.16
2018-12-24T12:47:15.657Z,78.70
2018-12-24T12:53:20.327Z,78.63
2018-12-24T12:59:25.013Z,77.95
2018-12-24T13:05:29.689Z,78.30
2018-12-24T13:11:34.341Z,78.79
2018-12-24T13:17:39.018Z,80.15
2018-12-24T13:23:43.700Z,79.06
2018-12-24T13:29:48.384Z,79.43
2018-12-24T13:35:53.113Z,79.15
2018-12-24T13:41:57.798Z,79.46
2018-12-24T13:48:02.487Z,78.70
2018-12-24T13:55:13.278Z,75.28
2018-12-24T14:01:56.293Z,75.34
2018-12-24T14:15:10.633Z,77.25
2018-12-24T14:21:53.646Z,78.53
2018-12-24T14:28:10.832Z,78.42
2018-12-24T14:34:34.794Z,76.18
2018-12-24T14:40:58.777Z,76.69
2018-12-24T14:47:22.777Z,77.63
2018-12-24T14:53:46.747Z,77.97
2018-12-24T15:00:10.758Z,77.15
2018-12-24T15:06:34.771Z,77.13
2018-12-24T15:12:58.789Z,76.16
2018-12-24T15:26:11.175Z,77.98
2018-12-24T15:32:35.076Z,77.14
2018-12-24T15:39:18.066Z,78.16
2018-12-24T15:45:41.954Z,79.33
2018-12-24T15:52:05.862Z,79.99
2018-12-24T15:58:29.753Z,80.50
2018-12-24T16:04:53.743Z,80.96
2018-12-24T16:11:17.635Z,81.44
2018-12-24T16:17:41.549Z,81.03
2018-12-24T16:24:05.518Z,81.34
2018-12-24T16:30:22.093Z,81.58
2018-12-24T16:36:45.991Z,81.74
2018-12-24T16:43:09.918Z,82.20
2018-12-24T16:49:33.870Z,82.35
2018-12-24T16:55:57.810Z,81.45
2018-12-24T17:02:21.735Z,81.87
2018-12-24T17:08:45.693Z,81.89
2018-12-24T17:15:09.597Z,82.00
2018-12-24T17:21:33.508Z,82.44
2018-12-24T17:27:50.188Z,82.56
2018-12-24T17:34:14.092Z,83.57
2018-12-24T17:40:38.075Z,83.83
2018-12-24T17:47:02.046Z,83.76
2018-12-24T17:53:45.081Z,83.58
2018-12-24T18:00:09.045Z,83.99
2018-12-24T18:06:32.993Z,84.70
2018-12-24T18:12:37.579Z,84.74
2018-12-24T18:18:42.156Z,85.02
2018-12-24T18:24:46.720Z,86.00
2018-12-24T18:30:51.277Z,86.46
2018-12-24T18:36:55.849Z,87.29
2018-12-24T18:43:00.466Z,87.94
2018-12-24T18:49:05.038Z,88.05
2018-12-24T18:55:09.604Z,88.19
2018-12-24T19:01:14.151Z,87.43
2018-12-24T19:07:18.762Z,87.95
2018-12-24T19:13:23.401Z,87.91
2018-12-24T19:19:27.951Z,87.92
2018-12-24T19:25:32.515Z,87.45
2018-12-24T19:31:37.068Z,87.83
2018-12-24T19:37:41.686Z,87.36
2018-12-24T19:43:46.245Z,87.51
2018-12-24T19:49:50.815Z,87.18
2018-12-24T19:55:55.445Z,87.14
2018-12-24T20:02:00.018Z,87.45
2018-12-24T20:08:04.633Z,87.31
2018-12-24T20:14:09.178Z,87.32
2018-12-24T20:20:13.848Z,86.86
2018-12-24T20:26:18.398Z,87.30
2018-12-24T20:32:23.041Z,87.95
2018-12-24T20:38:27.613Z,87.93
2018-12-24T20:44:32.212Z,88.28
2018-12-24T20:50:36.785Z,87.77
2018-12-24T20:56:41.434Z,87.52
2018-12-24T21:02:45.975Z,87.23
2018-12-24T21:08:50.543Z,87.52
2018-12-24T21:14:55.193Z,87.55
2018-12-24T21:20:59.756Z,87.82
2018-12-24T21:27:04.383Z,87.68
2018-12-24T21:33:08.949Z,87.11
2018-12-24T21:39:13.518Z,87.09
2018-12-24T21:45:18.075Z,87.40
2018-12-24T21:51:22.642Z,87.35
2018-12-24T21:57:27.240Z,87.56
2018-12-24T22:03:31.822Z,86.71
2018-12-24T22:09:36.374Z,87.05
2018-12-24T22:15:40.936Z,87.20
2018-12-24T22:21:45.522Z,86.98
2018-12-24T22:27:50.072Z,86.98
2018-12-24T22:33:54.703Z,87.48
2018-12-24T22:39:59.372Z,88.25
2018-12-24T22:46:04.002Z,87.99
2018-12-24T22:52:08.568Z,88.17
2018-12-24T22:58:13.128Z,87.49
2018-12-24T23:04:17.755Z,87.08
2018-12-24T23:10:22.324Z,86.59
2018-12-24T23:16:26.903Z,85.49
2018-12-24T23:22:33.104Z,85.52
2018-12-24T23:28:37.651Z,85.33
2018-12-24T23:34:42.233Z,84.78
2018-12-24T23:40:46.790Z,85.16
2018-12-24T23:46:51.379Z,84.72
2018-12-24T23:52:55.922Z,84.37
2018-12-24T23:59:00.632Z,85.04
